createdAt,value
2018-09-02T00:00:06.854Z,46.60
2018-09-02T00:02:37.415Z,46.60
2018-09-02T00:05:08.557Z,46.60
2018-09-02T00:07:39.169Z,46.40
2018-09-02T00:10:09.989Z,46.70
2018-09-02T00:12:40.646Z,45.80
2018-09-02T00:15:11.241Z,47.00
2018-09-02T00:17:42.014Z,47.00
2018-09-02T00:20:12.839Z,47.20
2018-09-02T00:22:43.726Z,47.20
2018-09-02T00:25:14.515Z,47.20
2018-09-02T00:27:45.133Z,47.40
2018-09-02T00:30:15.951Z,47.50
2018-09-02T00:32:46.690Z,47.70
2018-09-02T00:35:17.180Z,47.70
2018-09-02T00:37:47.897Z,47.90
2018-09-02T00:40:18.593Z,48.00
2018-09-02T00:42:49.224Z,48.10
2018-09-02T00:45:19.897Z,48.20
2018-09-02T00:47:50.609Z,48.20
2018-09-02T00:50:21.298Z,48.40
2018-09-02T00:52:51.940Z,48.40
2018-09-02T00:55:22.846Z,48.60
2018-09-02T00:57:53.498Z,48.60
2018-09-02T01:00:24.157Z,48.60
2018-09-02T01:02:54.707Z,48.70
2018-09-02T01:05:25.338Z,48.80
2018-09-02T01:07:57.212Z,48.90
2018-09-02T01:10:28.837Z,49.00
2018-09-02T01:12:59.729Z,49.10
2018-09-02T01:15:30.393Z,49.20
2018-09-02T01:18:00.937Z,49.20
2018-09-02T01:20:31.811Z,49.30
2018-09-02T01:23:02.829Z,49.40
2018-09-02T01:25:33.325Z,49.50
2018-09-02T01:28:04.062Z,48.70
2018-09-02T01:30:34.799Z,49.70
2018-09-02T01:33:05.668Z,49.60
2018-09-02T01:35:36.264Z,49.70
2018-09-02T01:38:07.053Z,49.80
2018-09-02T01:40:37.592Z,49.90
2018-09-02T01:43:08.185Z,50.10
2018-09-02T01:45:38.873Z,50.00
2018-09-02T01:48:09.433Z,50.70
2018-09-02T01:50:40.138Z,50.20
2018-09-02T01:53:10.863Z,50.20
2018-09-02T01:55:41.418Z,50.40
2018-09-02T01:58:11.956Z,50.50
2018-09-02T02:00:43.108Z,50.40
2018-09-02T02:03:13.792Z,50.60
2018-09-02T02:05:44.287Z,50.50
2018-09-02T02:08:14.920Z,51.30
2018-09-02T02:10:45.681Z,50.70
2018-09-02T02:13:16.333Z,50.80
2018-09-02T02:15:46.799Z,51.00
2018-09-02T02:18:17.478Z,51.00
2018-09-02T02:20:48.368Z,51.10
2018-09-02T02:23:19.438Z,51.10
2018-09-02T02:25:49.992Z,51.20
2018-09-02T02:28:21.060Z,51.30
2018-09-02T02:30:51.868Z,51.40
2018-09-02T02:33:22.460Z,51.40
2018-09-02T02:35:53.077Z,51.60
2018-09-02T02:38:23.761Z,51.50
2018-09-02T02:40:54.305Z,51.50
2018-09-02T02:43:24.988Z,51.60
2018-09-02T02:45:55.601Z,51.70
2018-09-02T02:48:26.401Z,51.90
2018-09-02T02:50:57.080Z,51.80
2018-09-02T02:53:27.968Z,52.10
2018-09-02T02:55:58.727Z,52.10
2018-09-02T02:58:29.465Z,52.70
2018-09-02T03:01:00.234Z,52.30
2018-09-02T03:03:31.124Z,52.30
2018-09-02T03:06:01.663Z,52.20
2018-09-02T03:08:32.410Z,52.40
2018-09-02T03:11:03.077Z,52.40
2018-09-02T03:13:33.838Z,52.50
2018-09-02T03:16:04.405Z,52.60
2018-09-02T03:18:35.016Z,53.40
2018-09-02T03:21:06.125Z,52.80
2018-09-02T03:23:36.691Z,52.90
2018-09-02T03:26:07.746Z,52.80
2018-09-02T03:28:38.296Z,52.80
2018-09-02T03:31:08.989Z,52.90
2018-09-02T03:33:39.609Z,53.00
2018-09-02T03:36:10.682Z,53.00
2018-09-02T03:38:41.410Z,53.50
2018-09-02T03:41:11.944Z,53.30
2018-09-02T03:43:42.671Z,53.40
2018-09-02T03:46:13.178Z,53.50
2018-09-02T03:48:43.784Z,53.50
2018-09-02T03:51:14.514Z,53.60
2018-09-02T03:53:45.283Z,53.60
2018-09-02T03:56:16.041Z,53.60
2018-09-02T03:58:46.771Z,53.60
2018-09-02T04:01:17.609Z,54.20
2018-09-02T04:03:48.507Z,53.80
2018-09-02T04:06:19.421Z,53.90
2018-09-02T04:08:49.988Z,53.90
2018-09-02T04:11:20.768Z,53.90
2018-09-02T04:13:51.531Z,54.00
2018-09-02T04:16:22.307Z,54.10
2018-09-02T04:18:52.855Z,54.10
2018-09-02T04:21:23.340Z,54.10
2018-09-02T04:23:53.960Z,54.10
2018-09-02T04:26:24.529Z,54.10
2018-09-02T04:28:55.277Z,54.20
2018-09-02T04:31:26.069Z,54.20
2018-09-02T04:33:56.794Z,54.20
2018-09-02T04:36:27.310Z,54.40
2018-09-02T04:38:57.973Z,54.20
2018-09-02T04:41:28.874Z,54.50
2018-09-02T04:44:06.224Z,54.40
2018-09-02T04:46:37.081Z,54.60
2018-09-02T04:49:07.944Z,54.50
2018-09-02T04:51:38.461Z,54.60
2018-09-02T04:54:09.649Z,54.60
2018-09-02T04:56:40.301Z,54.90
2018-09-02T04:59:11.003Z,54.90
2018-09-02T05:01:41.689Z,54.90
2018-09-02T05:04:12.432Z,53.80
2018-09-02T05:06:44.309Z,55.00
2018-09-02T05:09:14.966Z,55.00
2018-09-02T05:11:45.526Z,55.60
2018-09-02T05:14:16.677Z,55.20
2018-09-02T05:16:47.581Z,55.40
2018-09-02T05:19:18.054Z,55.40
2018-09-02T05:21:48.997Z,55.30
2018-09-02T05:24:19.593Z,55.30
2018-09-02T05:26:50.126Z,55.40
2018-09-02T05:29:21.290Z,55.40
2018-09-02T05:31:52.054Z,55.50
2018-09-02T05:34:22.510Z,55.60
2018-09-02T05:36:53.129Z,55.70
2018-09-02T05:39:24.721Z,55.70
2018-09-02T05:41:55.661Z,55.80
2018-09-02T05:44:26.158Z,55.80
2018-09-02T05:46:56.928Z,55.80
2018-09-02T05:49:27.488Z,56.10
2018-09-02T05:51:58.116Z,56.10
2018-09-02T05:54:28.532Z,56.10
2018-09-02T05:56:59.250Z,56.20
2018-09-02T05:59:30.266Z,56.30
2018-09-02T06:02:00.990Z,56.30
2018-09-02T06:04:31.595Z,56.30
2018-09-02T06:07:02.541Z,56.30
2018-09-02T06:09:33.012Z,56.40
2018-09-02T06:12:04.116Z,56.50
2018-09-02T06:14:34.689Z,56.50
2018-09-02T06:17:05.550Z,56.60
2018-09-02T06:19:36.189Z,56.50
2018-09-02T06:22:06.737Z,56.60
2018-09-02T06:24:37.449Z,56.60
2018-09-02T06:27:08.238Z,56.70
2018-09-02T06:29:38.849Z,56.70
2018-09-02T06:32:10.618Z,56.80
2018-09-02T06:34:41.237Z,56.80
2018-09-02T06:37:11.752Z,56.80
2018-09-02T06:39:42.789Z,56.80
2018-09-02T06:42:13.463Z,56.90
2018-09-02T06:44:44.280Z,56.90
2018-09-02T06:47:14.965Z,56.80
2018-09-02T06:49:45.698Z,56.90
2018-09-02T06:52:16.281Z,56.90
2018-09-02T06:54:46.951Z,57.00
2018-09-02T06:57:17.372Z,56.90
2018-09-02T06:59:48.092Z,56.90
2018-09-02T07:02:18.744Z,56.90
2018-09-02T07:04:49.494Z,56.90
2018-09-02T07:07:20.240Z,56.90
2018-09-02T07:09:50.853Z,56.80
2018-09-02T07:12:21.504Z,56.90
2018-09-02T07:14:52.187Z,56.80
2018-09-02T07:17:22.953Z,56.70
2018-09-02T07:19:53.494Z,56.70
2018-09-02T07:22:24.022Z,56.70
2018-09-02T07:24:54.429Z,56.50
2018-09-02T07:27:25.049Z,56.50
2018-09-02T07:29:56.299Z,56.40
2018-09-02T07:32:27.017Z,56.30
2018-09-02T07:34:57.609Z,56.20
2018-09-02T07:37:28.272Z,56.30
2018-09-02T07:39:58.910Z,56.30
2018-09-02T07:42:29.486Z,56.30
2018-09-02T07:45:00.049Z,56.20
2018-09-02T07:47:30.658Z,56.10
2018-09-02T07:50:01.299Z,56.10
2018-09-02T07:52:31.882Z,56.10
2018-09-02T07:55:02.640Z,56.00
2018-09-02T07:57:33.273Z,55.80
2018-09-02T08:00:03.974Z,55.80
2018-09-02T08:02:34.744Z,55.70
2018-09-02T08:05:05.600Z,55.60
2018-09-02T08:07:36.280Z,55.50
2018-09-02T08:10:09.154Z,55.50
2018-09-02T08:12:39.777Z,55.40
2018-09-02T08:15:10.474Z,55.30
2018-09-02T08:17:40.826Z,55.20
2018-09-02T08:20:11.718Z,55.10
2018-09-02T08:22:42.467Z,55.00
2018-09-02T08:25:13.206Z,54.90
2018-09-02T08:27:43.799Z,54.80
2018-09-02T08:30:14.507Z,54.10
2018-09-02T08:32:45.479Z,54.50
2018-09-02T08:35:16.183Z,54.30
2018-09-02T08:37:53.213Z,54.10
2018-09-02T08:40:24.130Z,54.00
2018-09-02T08:42:54.916Z,53.90
2018-09-02T08:45:25.590Z,53.80
2018-09-02T08:47:56.334Z,53.30
2018-09-02T08:50:26.902Z,53.40
2018-09-02T08:52:57.964Z,53.40
2018-09-02T08:55:28.578Z,53.10
2018-09-02T08:57:59.231Z,53.10
2018-09-02T09:00:30.062Z,52.30
2018-09-02T09:03:00.744Z,52.70
2018-09-02T09:05:31.652Z,52.60
2018-09-02T09:08:02.861Z,52.50
2018-09-02T09:10:33.537Z,52.30
2018-09-02T09:13:04.776Z,52.00
2018-09-02T09:15:35.715Z,51.80
2018-09-02T09:18:06.621Z,51.70
2018-09-02T09:20:37.213Z,51.50
2018-09-02T09:23:07.944Z,51.40
2018-09-02T09:25:38.721Z,51.10
2018-09-02T09:28:09.384Z,50.80
2018-09-02T09:30:40.069Z,50.70
2018-09-02T09:33:10.782Z,50.30
2018-09-02T09:35:41.430Z,50.10
2018-09-02T09:38:12.217Z,49.90
2018-09-02T09:40:42.836Z,49.60
2018-09-02T09:43:13.702Z,49.60
2018-09-02T09:45:44.356Z,49.40
2018-09-02T09:48:15.065Z,49.60
2018-09-02T09:50:45.641Z,49.70
2018-09-02T09:53:16.333Z,49.70
2018-09-02T09:55:47.151Z,49.60
2018-09-02T09:58:17.817Z,49.60
2018-09-02T10:00:49.981Z,49.50
2018-09-02T10:03:21.950Z,49.40
2018-09-02T10:05:53.379Z,48.90
2018-09-02T10:08:24.723Z,48.60
2018-09-02T10:10:56.014Z,48.10
2018-09-02T10:13:27.767Z,47.50
2018-09-02T10:15:59.007Z,46.90
2018-09-02T10:18:30.564Z,46.30
2018-09-02T10:21:01.714Z,46.00
2018-09-02T10:23:32.977Z,45.50
2018-09-02T10:26:04.798Z,45.70
2018-09-02T10:28:35.927Z,44.80
2018-09-02T10:31:07.415Z,44.50
2018-09-02T10:33:38.550Z,43.50
2018-09-02T10:36:09.950Z,43.10
2018-09-02T10:38:41.317Z,42.20
2018-09-02T10:41:12.730Z,41.70
2018-09-02T10:43:44.131Z,41.10
2018-09-02T10:46:15.703Z,40.80
2018-09-02T10:48:47.074Z,40.20
2018-09-02T10:51:18.333Z,39.60
2018-09-02T10:53:49.728Z,38.70
2018-09-02T10:56:21.359Z,38.20
2018-09-02T10:58:52.943Z,37.90
2018-09-02T11:01:24.540Z,37.50
2018-09-02T11:03:55.925Z,36.60
2018-09-02T11:06:27.375Z,36.70
2018-09-02T11:08:58.461Z,35.90
2018-09-02T11:11:30.080Z,35.60
2018-09-02T11:14:01.420Z,35.10
2018-09-02T11:16:32.840Z,34.60
2018-09-02T11:19:04.155Z,33.70
2018-09-02T11:21:35.676Z,33.40
2018-09-02T11:24:07.631Z,33.20
2018-09-02T11:26:38.978Z,32.60
2018-09-02T11:29:10.329Z,32.10
2018-09-02T11:31:41.761Z,32.20
2018-09-02T11:34:13.193Z,30.80
2018-09-02T11:36:53.081Z,30.70
2018-09-02T11:39:24.289Z,30.40
2018-09-02T11:41:55.903Z,30.40
2018-09-02T11:44:27.330Z,30.20
2018-09-02T11:46:58.557Z,30.00
2018-09-02T11:49:29.977Z,29.70
2018-09-02T11:52:01.171Z,29.50
2018-09-02T11:54:32.362Z,29.10
2018-09-02T11:57:03.443Z,28.70
2018-09-02T11:59:34.585Z,28.40
2018-09-02T12:02:05.896Z,27.80
2018-09-02T12:04:37.246Z,27.50
2018-09-02T12:07:08.503Z,27.40
2018-09-02T12:09:39.776Z,27.30
2018-09-02T12:12:11.147Z,27.10
2018-09-02T12:14:42.363Z,26.40
2018-09-02T12:17:13.320Z,26.60
2018-09-02T12:19:44.889Z,26.20
2018-09-02T12:22:16.095Z,26.30
2018-09-02T12:24:46.892Z,26.10
2018-09-02T12:27:18.011Z,26.10
2018-09-02T12:29:48.896Z,26.00
2018-09-02T12:32:19.784Z,25.20
2018-09-02T12:34:50.803Z,25.60
2018-09-02T12:37:21.715Z,25.50
2018-09-02T12:39:52.783Z,25.20
2018-09-02T12:42:23.770Z,25.10
2018-09-02T12:44:54.837Z,24.80
2018-09-02T12:47:25.848Z,24.70
2018-09-02T12:49:56.642Z,24.70
2018-09-02T12:52:27.601Z,24.50
2018-09-02T12:54:58.564Z,24.00
2018-09-02T12:57:29.585Z,24.10
2018-09-02T13:00:00.901Z,24.10
2018-09-02T13:02:31.826Z,23.70
2018-09-02T13:05:02.932Z,23.60
2018-09-02T13:07:33.734Z,23.60
2018-09-02T13:10:05.583Z,23.50
2018-09-02T13:12:36.470Z,23.50
2018-09-02T13:15:08.100Z,23.30
2018-09-02T13:17:39.330Z,23.10
2018-09-02T13:20:10.580Z,22.70
2018-09-02T13:22:42.256Z,22.40
2018-09-02T13:25:13.437Z,22.20
2018-09-02T13:27:44.594Z,22.10
2018-09-02T13:30:15.773Z,22.10
2018-09-02T13:32:46.835Z,22.20
2018-09-02T13:35:18.305Z,22.30
2018-09-02T13:37:49.512Z,22.60
2018-09-02T13:40:20.922Z,22.70
2018-09-02T13:42:52.229Z,22.80
2018-09-02T13:45:23.610Z,23.00
2018-09-02T13:47:54.861Z,23.10
2018-09-02T13:50:26.474Z,23.40
2018-09-02T13:52:57.519Z,23.40
2018-09-02T13:55:28.534Z,23.60
2018-09-02T13:57:59.565Z,23.80
2018-09-02T14:00:31.059Z,24.00
2018-09-02T14:03:02.265Z,24.30
2018-09-02T14:05:35.262Z,24.20
2018-09-02T14:08:07.460Z,24.40
2018-09-02T14:10:40.180Z,24.70
2018-09-02T14:13:11.290Z,24.70
2018-09-02T14:15:42.389Z,24.90
2018-09-02T14:18:13.761Z,25.00
2018-09-02T14:20:44.977Z,25.30
2018-09-02T14:23:16.220Z,25.30
2018-09-02T14:25:47.343Z,25.50
2018-09-02T14:28:18.960Z,25.50
2018-09-02T14:30:50.270Z,25.70
2018-09-02T14:33:21.584Z,26.10
2018-09-02T14:35:53.059Z,25.90
2018-09-02T14:38:24.286Z,25.90
2018-09-02T14:40:55.646Z,26.00
2018-09-02T14:43:26.743Z,26.00
2018-09-02T14:45:57.961Z,26.00
2018-09-02T14:48:29.258Z,26.10
2018-09-02T14:51:00.409Z,26.30
2018-09-02T14:53:31.818Z,26.20
2018-09-02T14:56:03.194Z,26.30
2018-09-02T14:58:34.937Z,26.30
2018-09-02T15:01:06.378Z,26.30
2018-09-02T15:03:37.460Z,26.30
2018-09-02T15:06:09.100Z,26.20
2018-09-02T15:08:40.402Z,26.30
2018-09-02T15:11:11.674Z,26.40
2018-09-02T15:13:42.801Z,26.50
2018-09-02T15:16:14.120Z,26.60
2018-09-02T15:18:45.290Z,26.60
2018-09-02T15:21:16.760Z,26.70
2018-09-02T15:23:48.036Z,26.70
2018-09-02T15:26:19.237Z,26.80
2018-09-02T15:28:52.018Z,26.90
2018-09-02T15:31:23.477Z,27.00
2018-09-02T15:33:54.597Z,27.10
2018-09-02T15:36:25.899Z,27.20
2018-09-02T15:38:57.047Z,27.20
2018-09-02T15:41:28.265Z,27.70
2018-09-02T15:43:59.695Z,27.30
2018-09-02T15:46:30.965Z,27.00
2018-09-02T15:49:02.280Z,27.60
2018-09-02T15:51:33.378Z,27.60
2018-09-02T15:54:05.054Z,27.60
2018-09-02T15:56:36.543Z,27.60
2018-09-02T15:59:07.695Z,28.20
2018-09-02T16:01:38.310Z,27.90
2018-09-02T16:04:09.675Z,27.90
2018-09-02T16:06:40.866Z,28.00
2018-09-02T16:09:12.157Z,28.00
2018-09-02T16:11:43.208Z,28.20
2018-09-02T16:14:14.159Z,28.20
2018-09-02T16:16:44.763Z,28.30
2018-09-02T16:19:16.187Z,28.30
2018-09-02T16:21:47.091Z,28.50
2018-09-02T16:24:17.802Z,28.50
2018-09-02T16:26:49.193Z,28.50
2018-09-02T16:29:20.674Z,28.50
2018-09-02T16:31:51.407Z,28.70
2018-09-02T16:34:21.960Z,28.70
2018-09-02T16:36:52.716Z,28.70
2018-09-02T16:39:23.381Z,28.90
2018-09-02T16:41:54.060Z,29.00
2018-09-02T16:44:24.882Z,29.00
2018-09-02T16:46:55.510Z,29.00
2018-09-02T16:49:26.217Z,29.40
2018-09-02T16:51:57.816Z,29.10
2018-09-02T16:54:29.417Z,29.30
2018-09-02T16:57:01.912Z,29.30
2018-09-02T16:59:32.654Z,29.20
2018-09-02T17:02:03.773Z,29.30
2018-09-02T17:04:36.191Z,29.30
2018-09-02T17:07:07.898Z,29.40
2018-09-02T17:09:38.536Z,29.40
2018-09-02T17:12:09.309Z,29.50
2018-09-02T17:14:40.733Z,29.50
2018-09-02T17:17:11.428Z,29.60
2018-09-02T17:19:45.049Z,29.60
2018-09-02T17:22:15.742Z,29.60
2018-09-02T17:24:46.511Z,29.70
2018-09-02T17:27:17.407Z,29.80
2018-09-02T17:29:48.777Z,29.70
2018-09-02T17:32:21.395Z,29.80
2018-09-02T17:34:51.976Z,29.90
2018-09-02T17:37:22.688Z,29.80
2018-09-02T17:39:53.496Z,29.90
2018-09-02T17:42:24.517Z,29.60
2018-09-02T17:44:55.636Z,29.80
2018-09-02T17:47:26.624Z,29.80
2018-09-02T17:49:57.433Z,29.90
2018-09-02T17:52:31.046Z,29.90
2018-09-02T17:55:02.504Z,29.90
2018-09-02T17:57:33.610Z,29.90
2018-09-02T18:00:04.788Z,29.90
2018-09-02T18:02:35.648Z,30.00
2018-09-02T18:05:07.126Z,29.90
2018-09-02T18:07:38.024Z,30.00
2018-09-02T18:10:08.893Z,30.00
2018-09-02T18:12:39.845Z,30.10
2018-09-02T18:15:10.303Z,30.10
2018-09-02T18:17:41.239Z,30.20
2018-09-02T18:20:12.202Z,30.20
2018-09-02T18:22:43.313Z,30.30
2018-09-02T18:25:14.526Z,30.30
2018-09-02T18:27:48.303Z,30.40
2018-09-02T18:30:19.243Z,30.40
2018-09-02T18:32:49.950Z,30.40
2018-09-02T18:35:21.154Z,30.50
2018-09-02T18:37:51.856Z,30.60
2018-09-02T18:40:22.915Z,30.70
2018-09-02T18:42:53.975Z,30.70
2018-09-02T18:45:25.236Z,30.70
2018-09-02T18:47:56.330Z,30.70
2018-09-02T18:50:27.283Z,30.80
2018-09-02T18:52:58.253Z,30.80
2018-09-02T18:55:29.191Z,30.80
2018-09-02T18:57:59.841Z,30.80
2018-09-02T19:00:30.758Z,30.80
2018-09-02T19:03:01.558Z,30.90
2018-09-02T19:05:32.652Z,30.90
2018-09-02T19:08:03.324Z,31.00
2018-09-02T19:10:34.844Z,31.10
2018-09-02T19:13:06.086Z,31.30
2018-09-02T19:15:37.012Z,31.30
2018-09-02T19:18:08.108Z,31.40
2018-09-02T19:20:39.225Z,31.40
2018-09-02T19:23:10.067Z,31.50
2018-09-02T19:25:41.637Z,31.60
2018-09-02T19:28:12.682Z,31.70
2018-09-02T19:30:43.996Z,31.80
2018-09-02T19:33:15.039Z,31.90
2018-09-02T19:35:46.033Z,32.00
2018-09-02T19:38:17.390Z,32.10
2018-09-02T19:40:48.257Z,32.00
2018-09-02T19:43:18.920Z,32.00
2018-09-02T19:45:50.264Z,32.00
2018-09-02T19:48:20.819Z,32.20
2018-09-02T19:50:51.514Z,32.30
2018-09-02T19:53:22.355Z,32.30
2018-09-02T19:55:53.279Z,32.40
2018-09-02T19:58:23.978Z,32.40
2018-09-02T20:00:54.825Z,32.50
2018-09-02T20:03:25.393Z,32.60
2018-09-02T20:05:56.052Z,32.80
2018-09-02T20:08:26.880Z,32.80
2018-09-02T20:10:57.625Z,32.80
2018-09-02T20:13:28.190Z,32.90
2018-09-02T20:15:58.807Z,33.00
2018-09-02T20:18:29.416Z,33.10
2018-09-02T20:21:00.399Z,33.20
2018-09-02T20:23:30.962Z,33.30
2018-09-02T20:26:01.716Z,33.30
2018-09-02T20:28:32.306Z,33.40
2018-09-02T20:31:03.200Z,33.50
2018-09-02T20:33:33.857Z,33.60
2018-09-02T20:36:04.940Z,33.80
2018-09-02T20:38:35.586Z,33.90
2018-09-02T20:41:06.301Z,34.00
2018-09-02T20:43:43.204Z,34.00
2018-09-02T20:46:13.969Z,34.00
2018-09-02T20:48:44.820Z,34.10
2018-09-02T20:51:15.590Z,34.20
2018-09-02T20:53:52.993Z,34.50
2018-09-02T20:56:23.685Z,34.30
2018-09-02T20:58:54.286Z,34.40
2018-09-02T21:01:25.307Z,34.50
2018-09-02T21:03:55.937Z,34.60
2018-09-02T21:06:26.714Z,34.70
2018-09-02T21:08:57.417Z,34.70
2018-09-02T21:11:28.191Z,34.90
2018-09-02T21:13:58.861Z,34.90
2018-09-02T21:16:29.431Z,34.40
2018-09-02T21:18:59.977Z,35.00
2018-09-02T21:21:31.850Z,35.10
2018-09-02T21:24:02.458Z,35.20
2018-09-02T21:26:33.136Z,35.20
2018-09-02T21:29:03.939Z,35.20
2018-09-02T21:31:34.745Z,35.30
2018-09-02T21:34:05.645Z,35.40
2018-09-02T21:36:36.178Z,35.40
2018-09-02T21:39:09.616Z,35.60
2018-09-02T21:41:40.173Z,36.00
2018-09-02T21:44:11.090Z,35.70
2018-09-02T21:46:41.773Z,35.70
2018-09-02T21:49:12.463Z,35.80
2018-09-02T21:51:43.199Z,35.90
2018-09-02T21:54:13.818Z,36.00
2018-09-02T21:56:44.685Z,36.00
2018-09-02T21:59:15.185Z,36.20
2018-09-02T22:01:45.972Z,36.30
2018-09-02T22:04:16.685Z,36.40
2018-09-02T22:06:47.693Z,36.40
2018-09-02T22:09:18.745Z,36.50
2018-09-02T22:11:49.601Z,36.60
2018-09-02T22:14:20.186Z,36.60
2018-09-02T22:16:50.691Z,36.60
2018-09-02T22:19:21.416Z,36.80
2018-09-02T22:21:52.096Z,36.90
2018-09-02T22:24:22.580Z,37.00
2018-09-02T22:26:53.131Z,37.00
2018-09-02T22:29:23.909Z,37.10
2018-09-02T22:31:54.490Z,37.30
2018-09-02T22:34:25.047Z,37.40
2018-09-02T22:36:55.589Z,37.40
2018-09-02T22:39:26.875Z,37.50
2018-09-02T22:41:57.816Z,37.60
2018-09-02T22:44:29.952Z,37.60
2018-09-02T22:47:00.607Z,37.70
2018-09-02T22:49:31.139Z,37.70
2018-09-02T22:52:01.747Z,38.60
2018-09-02T22:54:32.436Z,38.00
2018-09-02T22:57:04.346Z,38.10
2018-09-02T22:59:35.030Z,38.20
2018-09-02T23:02:05.857Z,38.20
2018-09-02T23:04:36.541Z,38.40
2018-09-02T23:07:07.054Z,38.40
2018-09-02T23:09:37.761Z,38.50
2018-09-02T23:12:11.696Z,38.60
2018-09-02T23:14:42.448Z,39.40
2018-09-02T23:17:12.996Z,38.70
2018-09-02T23:19:43.708Z,38.80
2018-09-02T23:22:14.657Z,38.80
2018-09-02T23:24:45.558Z,38.90
2018-09-02T23:27:16.800Z,39.10
2018-09-02T23:29:47.266Z,39.20
2018-09-02T23:32:17.842Z,39.00
2018-09-02T23:34:48.539Z,39.40
2018-09-02T23:37:19.244Z,39.30
2018-09-02T23:39:49.842Z,39.40
2018-09-02T23:42:20.470Z,40.20
2018-09-02T23:44:51.143Z,39.70
2018-09-02T23:47:22.802Z,39.80
2018-09-02T23:49:54.590Z,39.80
2018-09-02T23:52:25.257Z,39.90
2018-09-02T23:54:55.894Z,40.00
2018-09-02T23:57:26.613Z,40.20
2018-09-02T23:59:57.268Z,40.20
